Time;durP1;ratioP1;P1;durP2;ratioP2;P2;SDS_P1;SDS_P2;PMS_P1;PMS_P2;Temp;Humidity;BMP_temperature;BMP_pressure;BME280_temperature;BME280_humidity;BME280_pressure;Samples;Min_cycle;Max_cycle;Signal;HPM_P1;HPM_P2
2022/05/14 00:00:40;;;;;;;5.20;4.33;;;14.80;1.00;;;;;;5095624;28;20966;-53
2022/05/14 00:03:06;;;;;;;4.10;3.70;;;14.70;1.00;;;;;;5106372;28;20440;-56
2022/05/14 00:05:31;;;;;;;6.63;4.50;;;14.70;1.00;;;;;;5107122;28;21281;-55
2022/05/14 00:07:57;;;;;;;10.10;4.43;;;14.70;1.00;;;;;;5099823;28;20235;-55
2022/05/14 00:10:27;;;;;;;10.60;4.53;;;14.70;1.00;;;;;;5097309;28;20676;-54
2022/05/14 00:13:04;;;;;;;4.87;4.40;;;14.70;1.00;;;;;;5101898;28;20186;-55
2022/05/14 00:15:40;;;;;;;5.17;4.60;;;14.60;1.00;;;;;;5103448;28;20880;-56
2022/05/14 00:18:08;;;;;;;5.83;4.20;;;14.60;1.00;;;;;;5097067;28;20440;-56
2022/05/14 00:20:36;;;;;;;6.53;4.17;;;14.60;1.00;;;;;;5101314;28;20447;-55
2022/05/14 00:23:05;;;;;;;5.33;3.80;;;14.50;1.00;;;;;;5097421;28;20471;-56
2022/05/14 00:25:31;;;;;;;4.97;3.97;;;14.50;1.00;;;;;;5098993;28;20443;-54
2022/05/14 00:27:57;;;;;;;4.50;4.10;;;14.60;1.00;;;;;;5107187;28;20447;-55
2022/05/14 00:30:28;;;;;;;4.80;4.27;;;14.60;1.00;;;;;;5072931;28;20440;-54
2022/05/14 00:32:54;;;;;;;4.20;3.87;;;14.60;1.00;;;;;;5094249;28;20280;-55
2022/05/14 00:35:21;;;;;;;4.13;3.73;;;14.60;1.00;;;;;;5098782;28;20933;-55
2022/05/14 00:37:47;;;;;;;4.17;3.77;;;14.50;1.00;;;;;;5098882;28;20269;-56
2022/05/14 00:40:23;;;;;;;6.63;3.90;;;14.40;1.00;;;;;;5096218;28;20438;-53
2022/05/14 00:42:49;;;;;;;6.13;4.70;;;14.40;1.00;;;;;;5098511;28;20501;-56
2022/05/14 00:45:16;;;;;;;4.77;4.10;;;14.40;1.00;;;;;;5098376;28;20495;-56
2022/05/14 00:47:45;;;;;;;4.40;4.10;;;14.10;1.00;;;;;;5097140;28;20459;-57
2022/05/14 00:50:48;;;;;;;4.33;4.03;;;14.30;1.00;;;;;;5096168;28;20980;-55
2022/05/14 00:53:23;;;;;;;4.27;3.90;;;14.20;1.00;;;;;;5099500;28;20550;-55
2022/05/14 00:55:51;;;;;;;6.33;4.33;;;14.20;1.00;;;;;;5104518;28;20544;-55
2022/05/14 00:58:32;;;;;;;3.73;3.43;;;14.10;1.00;;;;;;5105164;28;20506;-55
2022/05/14 01:00:57;;;;;;;4.10;3.70;;;14.00;1.00;;;;;;5098454;28;20443;-55
2022/05/14 01:03:23;;;;;;;4.60;4.20;;;14.00;1.00;;;;;;5104093;28;20444;-56
2022/05/14 01:05:50;;;;;;;6.27;3.80;;;13.90;1.00;;;;;;5103935;28;20841;-54
2022/05/14 01:08:16;;;;;;;4.63;4.23;;;13.90;1.00;;;;;;5109647;28;20281;-55
2022/05/14 01:10:45;;;;;;;8.00;5.03;;;13.90;1.00;;;;;;5106569;28;20578;-53
2022/05/14 01:13:11;;;;;;;5.60;4.40;;;13.90;1.00;;;;;;5104614;28;20187;-54
2022/05/14 01:15:49;;;;;;;4.50;4.10;;;13.80;1.00;;;;;;5108989;28;21073;-54
2022/05/14 01:18:15;;;;;;;7.87;4.00;;;;;;;;;;5098084;28;20447;-55
2022/05/14 01:20:41;;;;;;;6.10;3.90;;;13.70;1.00;;;;;;5106238;28;20452;-54
2022/05/14 01:23:30;;;;;;;4.00;3.70;;;13.70;1.00;;;;;;5107770;28;20460;-54
2022/05/14 01:26:29;;;;;;;4.30;3.90;;;13.70;1.00;;;;;;5099313;28;20970;-55
2022/05/14 01:29:05;;;;;;;3.83;3.50;;;13.70;1.00;;;;;;5109684;28;20975;-54
2022/05/14 01:31:31;;;;;;;4.43;4.03;;;13.70;1.00;;;;;;5107218;28;20463;-54
2022/05/14 01:34:05;;;;;;;4.00;3.70;;;13.70;1.00;;;;;;5104667;28;20498;-54
2022/05/14 01:36:32;;;;;;;3.70;3.40;;;13.60;1.00;;;;;;5102357;28;20435;-56
2022/05/14 01:38:57;;;;;;;5.20;4.70;;;13.60;1.00;;;;;;5097971;28;20446;-54
2022/05/14 01:41:23;;;;;;;6.53;4.00;;;13.50;1.00;;;;;;5100208;28;20460;-55
2022/05/14 01:43:49;;;;;;;5.03;4.40;;;13.50;1.00;;;;;;5102678;28;20208;-55
2022/05/14 01:46:15;;;;;;;4.30;3.90;;;13.60;1.00;;;;;;5108490;28;20198;-56
2022/05/14 01:48:41;;;;;;;3.77;3.50;;;;;;;;;;5106601;28;20447;-54
2022/05/14 01:51:07;;;;;;;4.33;3.93;;;13.50;1.00;;;;;;5110071;28;20467;-54
2022/05/14 01:53:33;;;;;;;3.70;3.40;;;13.50;1.00;;;;;;5105082;28;20778;-54
2022/05/14 01:55:59;;;;;;;3.97;3.57;;;13.50;1.00;;;;;;5085472;28;20447;-55
2022/05/14 01:58:37;;;;;;;5.73;4.30;;;13.40;1.00;;;;;;5102779;28;20186;-56
2022/05/14 02:01:30;;;;;;;4.07;3.60;;;13.30;1.00;;;;;;5105839;28;20455;-55
2022/05/14 02:04:08;;;;;;;4.43;3.70;;;13.40;1.00;;;;;;5107357;28;20452;-54
2022/05/14 02:06:34;;;;;;;4.47;3.80;;;13.40;1.00;;;;;;5103670;28;20452;-54
2022/05/14 02:09:01;;;;;;;6.20;4.30;;;13.40;1.00;;;;;;5103134;28;20479;-54
2022/05/14 02:11:28;;;;;;;4.43;3.77;;;13.40;1.00;;;;;;5109108;28;20479;-56
2022/05/14 02:13:54;;;;;;;4.60;4.20;;;13.40;1.00;;;;;;5100725;28;22208;-54
2022/05/14 02:16:20;;;;;;;5.50;4.37;;;13.30;1.00;;;;;;5103030;28;20476;-54
2022/05/14 02:18:46;;;;;;;4.07;3.77;;;13.30;1.00;;;;;;5105223;28;20490;-56
2022/05/14 02:21:12;;;;;;;5.30;3.97;;;13.30;1.00;;;;;;5106118;28;20535;-55
2022/05/14 02:23:39;;;;;;;5.57;4.23;;;13.30;1.00;;;;;;5104130;28;20303;-54
2022/05/14 02:26:10;;;;;;;6.10;3.70;;;13.30;1.00;;;;;;5107090;28;20448;-54
2022/05/14 02:28:36;;;;;;;4.47;4.10;;;;;;;;;;5103301;28;20535;-55
2022/05/14 02:31:06;;;;;;;4.40;4.07;;;13.20;1.00;;;;;;5106259;28;20456;-55
2022/05/14 02:33:31;;;;;;;5.17;3.83;;;13.20;1.00;;;;;;5102841;28;20456;-55
2022/05/14 02:35:58;;;;;;;4.07;3.77;;;13.20;1.00;;;;;;5105839;28;20953;-54
2022/05/14 02:38:25;;;;;;;4.53;3.57;;;13.20;1.00;;;;;;5108585;28;20670;-55
2022/05/14 02:40:52;;;;;;;4.20;3.80;;;13.20;1.00;;;;;;5104129;28;20554;-54
2022/05/14 02:43:17;;;;;;;4.80;4.10;;;13.20;1.00;;;;;;5105305;28;20933;-56
2022/05/14 02:45:43;;;;;;;5.47;4.40;;;13.30;1.00;;;;;;5103315;28;20487;-54
2022/05/14 02:48:11;;;;;;;8.10;4.00;;;13.10;1.00;;;;;;5082840;28;20661;-54
2022/05/14 02:50:38;;;;;;;7.43;4.47;;;13.10;1.00;;;;;;5105209;28;20207;-55
2022/05/14 02:53:03;;;;;;;4.47;4.03;;;13.10;1.00;;;;;;5105302;28;20812;-55
2022/05/14 02:55:30;;;;;;;3.77;3.47;;;13.10;1.00;;;;;;5100123;28;20452;-54
2022/05/14 02:57:55;;;;;;;4.77;4.33;;;13.00;1.00;;;;;;5106846;28;20684;-55
2022/05/14 03:00:21;;;;;;;3.93;3.60;;;13.00;1.00;;;;;;5103460;28;20475;-55
2022/05/14 03:02:47;;;;;;;4.03;3.67;;;13.00;1.00;;;;;;5106964;28;20622;-53
2022/05/14 03:05:16;;;;;;;4.00;3.70;;;13.00;1.00;;;;;;5092136;28;20521;-54
2022/05/14 03:07:41;;;;;;;4.37;3.97;;;13.00;1.00;;;;;;5086936;28;20523;-56
2022/05/14 03:10:07;;;;;;;4.40;3.53;;;13.00;1.00;;;;;;5099480;28;20531;-54
2022/05/14 03:12:33;;;;;;;5.33;3.80;;;;;;;;;;5097111;28;20208;-53
2022/05/14 03:15:05;;;;;;;8.07;3.87;;;;;;;;;;5099416;28;20440;-54
2022/05/14 03:17:34;;;;;;;4.30;3.90;;;12.90;1.00;;;;;;5104790;28;20454;-55
2022/05/14 03:20:01;;;;;;;4.57;4.03;;;12.90;1.00;;;;;;5103671;28;20444;-54
2022/05/14 03:22:26;;;;;;;4.40;4.00;;;12.90;1.00;;;;;;5099780;28;20480;-55
2022/05/14 03:24:52;;;;;;;7.37;4.10;;;12.90;1.00;;;;;;5103074;28;20938;-56
2022/05/14 03:27:17;;;;;;;4.37;3.97;;;12.90;1.00;;;;;;5107421;28;20190;-54
2022/05/14 03:29:43;;;;;;;4.30;3.77;;;12.80;1.00;;;;;;5108352;28;20185;-54
2022/05/14 03:32:09;;;;;;;4.80;4.40;;;12.90;1.00;;;;;;5107528;28;20202;-54
2022/05/14 03:34:36;;;;;;;5.90;4.23;;;12.90;1.00;;;;;;5097886;28;20191;-55
2022/05/14 03:37:02;;;;;;;5.20;4.23;;;12.90;1.00;;;;;;5101596;28;20189;-55
2022/05/14 03:39:28;;;;;;;7.57;4.23;;;12.90;1.00;;;;;;5102352;28;20463;-56
2022/05/14 03:41:53;;;;;;;5.77;3.87;;;15.30;1.00;;;;;;5101640;28;21666;-56
2022/05/14 03:44:19;;;;;;;4.07;3.63;;;;;;;;;;5102251;28;20484;-56
2022/05/14 03:46:46;;;;;;;7.27;4.10;;;13.20;1.00;;;;;;5106126;28;20193;-55
2022/05/14 03:49:12;;;;;;;4.30;3.90;;;13.30;1.00;;;;;;5105436;28;20855;-55
2022/05/14 03:51:37;;;;;;;4.40;3.60;;;13.30;1.00;;;;;;5107272;28;20479;-55
2022/05/14 03:54:04;;;;;;;4.63;4.33;;;13.40;1.00;;;;;;5101946;28;20186;-54
2022/05/14 03:56:31;;;;;;;4.37;3.97;;;13.40;1.00;;;;;;5102837;28;20193;-55
2022/05/14 03:58:57;;;;;;;4.90;3.87;;;13.40;1.00;;;;;;5098212;28;20448;-56
2022/05/14 04:01:22;;;;;;;5.53;4.20;;;13.50;1.00;;;;;;5108433;28;20466;-56
2022/05/14 04:03:48;;;;;;;4.50;3.47;;;13.50;1.00;;;;;;5100754;28;20276;-56
2022/05/14 04:06:14;;;;;;;4.50;3.70;;;13.60;1.00;;;;;;5105534;28;20186;-55
2022/05/14 04:08:40;;;;;;;5.13;3.77;;;13.60;1.00;;;;;;5105687;28;20459;-55
2022/05/14 04:11:07;;;;;;;5.63;4.37;;;13.60;1.00;;;;;;5098946;28;20249;-54
2022/05/14 04:13:33;;;;;;;6.53;4.87;;;13.70;1.00;;;;;;5106804;28;20540;-55
2022/05/14 04:15:58;;;;;;;5.77;4.00;;;13.80;1.00;;;;;;5106466;28;20546;-56
2022/05/14 04:18:24;;;;;;;4.30;3.90;;;13.80;1.00;;;;;;5103612;28;20447;-55
2022/05/14 04:21:00;;;;;;;4.87;4.20;;;13.90;1.00;;;;;;5100522;28;20204;-54
2022/05/14 04:23:30;;;;;;;6.30;3.87;;;13.90;1.00;;;;;;5102958;28;20187;-53
2022/05/14 04:25:57;;;;;;;3.50;3.20;;;14.10;1.00;;;;;;5106341;28;20451;-55
2022/05/14 04:28:23;;;;;;;5.80;4.50;;;;;;;;;;5104265;28;20928;-55
2022/05/14 04:30:50;;;;;;;4.40;4.00;;;14.30;1.00;;;;;;5092765;28;20472;-56
2022/05/14 04:33:16;;;;;;;5.13;3.60;;;14.40;1.00;;;;;;5095241;28;20448;-54
2022/05/14 04:35:42;;;;;;;4.80;4.40;;;14.30;1.00;;;;;;5093383;28;20524;-54
2022/05/14 04:38:08;;;;;;;4.47;3.97;;;14.50;1.00;;;;;;5108746;28;20856;-54
2022/05/14 04:40:34;;;;;;;4.80;4.40;;;14.60;1.00;;;;;;5105417;28;20178;-54
2022/05/14 04:43:00;;;;;;;5.40;4.00;;;14.60;1.00;;;;;;5106183;28;20272;-55
2022/05/14 04:45:26;;;;;;;5.03;3.97;;;14.70;1.00;;;;;;5107614;28;20550;-54
2022/05/14 04:47:52;;;;;;;5.57;3.80;;;14.70;1.00;;;;;;5103677;28;20426;-54
2022/05/14 04:50:18;;;;;;;3.70;3.40;;;14.90;1.00;;;;;;5112367;28;20439;-55
2022/05/14 04:52:44;;;;;;;5.63;3.90;;;14.80;1.00;;;;;;5107485;28;20471;-54
2022/05/14 04:55:10;;;;;;;4.00;3.70;;;14.90;1.00;;;;;;5102885;28;20229;-56
2022/05/14 04:57:36;;;;;;;5.03;4.03;;;14.90;1.00;;;;;;5106037;28;20194;-54
2022/05/14 05:00:03;;;;;;;5.73;3.63;;;15.00;1.00;;;;;;5109678;28;20447;-54
2022/05/14 05:05:13;;;;;;;4.37;3.80;;;15.10;1.00;;;;;;5102976;28;20790;-55
2022/05/14 05:07:39;;;;;;;5.17;3.93;;;15.10;1.00;;;;;;5109883;28;20469;-55
2022/05/14 05:10:05;;;;;;;4.70;3.67;;;15.10;1.00;;;;;;5106796;28;21122;-56
2022/05/14 05:12:31;;;;;;;4.60;3.60;;;15.10;1.00;;;;;;5104910;28;20210;-54
2022/05/14 05:14:56;;;;;;;6.03;3.93;;;15.10;1.00;;;;;;5107540;28;20800;-55
2022/05/14 05:17:22;;;;;;;4.23;3.93;;;15.10;1.00;;;;;;5106836;28;20284;-54
2022/05/14 05:19:47;;;;;;;4.80;4.30;;;15.30;1.00;;;;;;5089796;28;20217;-54
2022/05/14 05:22:14;;;;;;;4.83;3.90;;;15.30;1.00;;;;;;5110340;28;20216;-55
2022/05/14 05:24:41;;;;;;;8.77;3.93;;;15.30;1.00;;;;;;5107893;28;20190;-56
2022/05/14 05:27:07;;;;;;;5.70;3.67;;;15.30;1.00;;;;;;5106494;28;20451;-54
2022/05/14 05:29:33;;;;;;;6.47;3.90;;;15.60;1.00;;;;;;5107557;28;20455;-56
2022/05/14 05:31:58;;;;;;;5.30;4.80;;;15.50;1.00;;;;;;5107720;28;20205;-54
2022/05/14 05:34:24;;;;;;;4.30;4.00;;;15.70;1.00;;;;;;5109234;28;20270;-54
2022/05/14 05:36:50;;;;;;;4.00;3.60;;;15.80;1.00;;;;;;5095868;28;20266;-55
2022/05/14 05:39:17;;;;;;;4.40;3.63;;;15.80;1.00;;;;;;5103091;28;20224;-54
2022/05/14 05:41:42;;;;;;;7.20;4.40;;;15.90;1.00;;;;;;5102649;28;20182;-53
2022/05/14 05:44:08;;;;;;;4.53;3.63;;;16.00;1.00;;;;;;5109532;28;20464;-55
2022/05/14 05:46:34;;;;;;;4.20;3.80;;;16.00;1.00;;;;;;5106101;28;20200;-55
2022/05/14 05:49:00;;;;;;;4.10;3.70;;;16.20;1.00;;;;;;5109226;28;20555;-56
2022/05/14 05:51:25;;;;;;;4.50;4.07;;;16.30;1.00;;;;;;5101702;28;20516;-53
2022/05/14 05:56:47;;;;;;;3.70;3.40;;;16.50;1.00;;;;;;5101960;28;20332;-55
2022/05/14 05:59:18;;;;;;;4.73;3.90;;;16.60;1.00;;;;;;5103189;28;20542;-54
2022/05/14 06:01:44;;;;;;;4.90;3.77;;;16.70;1.00;;;;;;5106615;28;20528;-55
2022/05/14 06:04:11;;;;;;;5.00;3.53;;;16.80;1.00;;;;;;5108630;28;20801;-56
2022/05/14 06:06:41;;;;;;;4.20;3.80;;;16.80;1.00;;;;;;5102475;28;20448;-55
2022/05/14 06:09:06;;;;;;;4.40;3.50;;;16.80;1.00;;;;;;5081516;28;20426;-55
2022/05/14 06:11:32;;;;;;;6.27;2.90;;;16.90;1.00;;;;;;5101809;28;20532;-55
2022/05/14 06:13:58;;;;;;;3.70;3.40;;;17.10;1.00;;;;;;5107198;28;20440;-56
2022/05/14 06:16:25;;;;;;;6.33;3.80;;;;;;;;;;5104162;28;20205;-54
2022/05/14 06:18:51;;;;;;;5.13;3.70;;;17.40;1.00;;;;;;5102933;28;21169;-55
2022/05/14 06:21:17;;;;;;;3.70;3.40;;;17.60;1.00;;;;;;5099403;28;20455;-55
2022/05/14 06:23:42;;;;;;;4.90;3.27;;;17.90;1.00;;;;;;5100940;28;20182;-55
2022/05/14 06:26:08;;;;;;;5.13;3.30;;;18.00;1.00;;;;;;5097472;28;20178;-56
2022/05/14 06:28:34;;;;;;;5.00;3.67;;;18.30;1.00;;;;;;5101358;28;20186;-55
2022/05/14 06:31:00;;;;;;;4.27;3.60;;;18.20;1.00;;;;;;5101409;28;20214;-54
2022/05/14 06:33:26;;;;;;;6.50;3.53;;;18.40;1.00;;;;;;5094231;28;20210;-56
2022/05/14 06:35:53;;;;;;;3.80;3.37;;;18.50;1.00;;;;;;5084850;28;20469;-55
2022/05/14 06:38:19;;;;;;;5.80;3.10;;;18.70;1.00;;;;;;5100408;28;20472;-55
2022/05/14 06:40:45;;;;;;;6.20;3.43;;;18.80;1.00;;;;;;5096969;28;20439;-53
2022/05/14 06:43:10;;;;;;;7.27;3.40;;;19.20;1.00;;;;;;5101087;28;21793;-55
2022/05/14 06:45:36;;;;;;;4.03;3.40;;;19.10;1.00;;;;;;5097916;28;20244;-56
2022/05/14 06:48:02;;;;;;;3.57;3.00;;;19.20;1.00;;;;;;5098873;28;20235;-54
2022/05/14 06:50:31;;;;;;;4.67;3.47;;;19.30;1.00;;;;;;5101006;28;20190;-56
2022/05/14 06:52:59;;;;;;;3.90;3.27;;;19.10;1.00;;;;;;5100692;28;20495;-55
2022/05/14 06:55:28;;;;;;;3.70;3.30;;;19.10;1.00;;;;;;5098390;28;21023;-56
2022/05/14 06:57:54;;;;;;;6.20;3.37;;;19.20;1.00;;;;;;5099971;28;20452;-54
2022/05/14 07:00:20;;;;;;;3.60;3.30;;;19.20;1.00;;;;;;5096444;28;20456;-56
2022/05/14 07:02:47;;;;;;;4.23;2.77;;;19.50;1.00;;;;;;5078821;28;20539;-55
2022/05/14 07:07:58;;;;;;;4.67;3.63;;;19.70;1.00;;;;;;5108417;28;20832;-56
2022/05/14 07:10:24;;;;;;;3.83;3.37;;;20.00;1.00;;;;;;5098592;28;20452;-56
2022/05/14 07:12:49;;;;;;;3.17;2.90;;;20.10;1.00;;;;;;5099654;28;20226;-57
2022/05/14 07:15:15;;;;;;;5.57;3.73;;;20.20;1.00;;;;;;5093721;28;20461;-56
2022/05/14 07:17:41;;;;;;;4.40;3.30;;;20.00;1.00;;;;;;5109073;28;20651;-61
2022/05/14 07:20:07;;;;;;;5.40;3.47;;;19.90;1.00;;;;;;5109735;28;20276;-61
2022/05/14 07:22:33;;;;;;;6.07;3.20;;;20.00;1.00;;;;;;5101181;28;20542;-60
2022/05/14 07:24:59;;;;;;;5.60;3.80;;;20.20;1.00;;;;;;5099915;28;20459;-61
2022/05/14 07:27:24;;;;;;;6.13;3.60;;;20.50;1.00;;;;;;5090988;28;20218;-62
2022/05/14 07:29:50;;;;;;;5.73;3.77;;;20.50;1.00;;;;;;5109348;28;20269;-60
2022/05/14 07:32:17;;;;;;;4.93;3.60;;;20.40;1.00;;;;;;5092267;28;20241;-62
2022/05/14 07:34:44;;;;;;;6.83;3.73;;;20.60;1.00;;;;;;5103687;28;20448;-61
2022/05/14 07:37:16;;;;;;;4.33;3.60;;;20.50;1.00;;;;;;5104724;28;20538;-61
2022/05/14 07:39:55;;;;;;;6.37;4.10;;;20.20;1.00;;;;;;5108970;28;20469;-62
2022/05/14 07:42:35;;;;;;;6.20;4.33;;;20.20;1.00;;;;;;5096430;28;20516;-61
2022/05/14 07:45:03;;;;;;;9.43;4.73;;;20.20;1.00;;;;;;5093690;28;20484;-62
2022/05/14 07:47:30;;;;;;;5.57;4.03;;;20.20;1.00;;;;;;5107882;28;20452;-62
2022/05/14 07:49:56;;;;;;;6.57;4.47;;;20.40;1.00;;;;;;5107056;28;20550;-61
2022/05/14 07:52:23;;;;;;;5.13;4.30;;;20.30;1.00;;;;;;5108246;28;20833;-61
2022/05/14 07:54:49;;;;;;;8.53;4.50;;;20.10;1.00;;;;;;5108919;28;20476;-61
2022/05/14 07:57:16;;;;;;;4.33;3.90;;;20.00;1.00;;;;;;5100573;28;20832;-61
2022/05/14 07:59:41;;;;;;;6.67;4.30;;;20.00;1.00;;;;;;5101567;28;20496;-61
2022/05/14 08:02:20;;;;;;;7.50;5.00;;;20.10;1.00;;;;;;5091050;28;20444;-61
2022/05/14 08:04:45;;;;;;;7.47;5.40;;;20.00;1.00;;;;;;5100670;28;20230;-61
2022/05/14 08:07:11;;;;;;;6.93;5.50;;;20.30;1.00;;;;;;5092750;28;20540;-61
2022/05/14 08:09:36;;;;;;;6.30;5.60;;;20.40;1.00;;;;;;5097170;28;20191;-61
2022/05/14 08:12:02;;;;;;;8.50;6.00;;;20.40;1.00;;;;;;5095114;28;20275;-62
2022/05/14 08:14:29;;;;;;;6.50;5.80;;;20.70;1.00;;;;;;5101512;28;20196;-61
2022/05/14 08:16:55;;;;;;;7.30;6.60;;;20.70;1.00;;;;;;5112656;28;20443;-61
2022/05/14 08:19:20;;;;;;;8.53;6.90;;;20.70;1.00;;;;;;5108054;28;20447;-61
2022/05/14 08:24:31;;;;;;;6.50;5.90;;;20.50;1.00;;;;;;5112184;28;20196;-61
2022/05/14 08:27:04;;;;;;;7.90;6.60;;;20.30;1.00;;;;;;5110194;28;20448;-62
2022/05/14 08:29:30;;;;;;;5.93;5.43;;;20.40;1.00;;;;;;5107891;28;20512;-61
2022/05/14 08:31:55;;;;;;;8.37;5.93;;;20.70;1.00;;;;;;5112316;28;20472;-62
2022/05/14 08:34:21;;;;;;;8.90;6.53;;;20.80;1.00;;;;;;5098940;28;20811;-56
2022/05/14 08:36:47;;;;;;;8.70;6.07;;;20.70;1.00;;;;;;5109804;28;20196;-57
2022/05/14 08:39:13;;;;;;;6.50;5.87;;;20.80;1.00;;;;;;5112392;28;20206;-56
2022/05/14 08:41:42;;;;;;;7.97;6.10;;;21.10;1.00;;;;;;5111917;28;20197;-56
2022/05/14 08:44:12;;;;;;;6.97;5.33;;;20.90;1.00;;;;;;5104486;28;20478;-56
2022/05/14 08:46:39;;;;;;;6.10;5.50;;;20.90;1.00;;;;;;5107975;28;20447;-57
2022/05/14 08:49:12;;;;;;;5.90;5.37;;;20.90;1.00;;;;;;5111139;28;20474;-56
2022/05/14 08:51:42;;;;;;;6.03;5.43;;;21.30;1.00;;;;;;5108081;28;20467;-55
2022/05/14 08:54:08;;;;;;;7.23;6.20;;;21.40;1.00;;;;;;5103273;28;20534;-56
2022/05/14 08:56:46;;;;;;;6.67;6.00;;;21.10;1.00;;;;;;5107476;28;20992;-57
2022/05/14 08:59:42;;;;;;;7.17;6.43;;;21.50;1.00;;;;;;5108227;28;20672;-57
2022/05/14 09:02:38;;;;;;;9.83;6.77;;;21.50;1.00;;;;;;5104124;28;20461;-58
2022/05/14 09:05:06;;;;;;;8.20;6.03;;;21.40;1.00;;;;;;5097930;28;20477;-57
2022/05/14 09:07:32;;;;;;;7.07;5.90;;;21.20;1.00;;;;;;5104247;28;20447;-57
2022/05/14 09:09:58;;;;;;;5.93;5.33;;;21.30;1.00;;;;;;5111747;28;20461;-57
2022/05/14 09:12:31;;;;;;;6.63;6.03;;;21.60;1.00;;;;;;5108743;28;20471;-57
2022/05/14 09:15:03;;;;;;;9.20;5.70;;;21.60;1.00;;;;;;5102893;28;20455;-57
2022/05/14 09:17:30;;;;;;;7.37;5.50;;;21.70;1.00;;;;;;5102830;28;20467;-57
2022/05/14 09:19:58;;;;;;;8.67;7.07;;;20.70;1.00;;;;;;5102459;28;20449;-57
2022/05/14 09:22:35;;;;;;;6.83;6.23;;;21.90;1.00;;;;;;5112553;28;20447;-56
2022/05/14 09:25:01;;;;;;;11.73;6.57;;;21.80;1.00;;;;;;5109429;28;20948;-57
2022/05/14 09:27:40;;;;;;;7.77;6.20;;;21.50;1.00;;;;;;5111919;28;20463;-56
2022/05/14 09:30:10;;;;;;;8.03;7.23;;;21.20;1.00;;;;;;5108758;28;20190;-56
2022/05/14 09:32:42;;;;;;;8.70;6.73;;;21.20;1.00;;;;;;5106118;28;20467;-56
2022/05/14 09:35:18;;;;;;;8.77;6.80;;;21.40;1.00;;;;;;5103974;28;20450;-55
2022/05/14 09:37:44;;;;;;;8.80;6.60;;;21.50;1.00;;;;;;5110532;28;20763;-57
2022/05/14 09:40:20;;;;;;;8.70;7.47;;;21.50;1.00;;;;;;5105730;28;20435;-57
2022/05/14 09:42:49;;;;;;;7.37;6.43;;;21.40;1.00;;;;;;5110975;28;20190;-57
2022/05/14 09:45:28;;;;;;;8.37;7.20;;;21.50;1.00;;;;;;5105777;28;20997;-56
2022/05/14 09:47:54;;;;;;;7.67;6.90;;;21.50;1.00;;;;;;5100269;28;20446;-57
2022/05/14 09:50:33;;;;;;;8.40;7.33;;;21.80;1.00;;;;;;5111831;28;20440;-57
2022/05/14 09:53:04;;;;;;;8.10;7.30;;;21.50;1.00;;;;;;5111276;28;20264;-56
2022/05/14 09:55:51;;;;;;;9.77;7.33;;;21.60;1.00;;;;;;5110597;28;20957;-56
2022/05/14 09:58:30;;;;;;;10.90;7.50;;;21.60;1.00;;;;;;5108581;28;20432;-57
2022/05/14 10:01:09;;;;;;;7.23;6.50;;;21.80;1.00;;;;;;5094837;28;20520;-57
2022/05/14 10:03:40;;;;;;;14.10;6.70;;;22.10;1.00;;;;;;5102346;28;20520;-56
2022/05/14 10:06:32;;;;;;;8.37;6.60;;;22.30;1.00;;;;;;5106013;28;20552;-56
2022/05/14 10:08:57;;;;;;;9.93;7.23;;;22.30;1.00;;;;;;5110911;28;20447;-58
2022/05/14 10:11:32;;;;;;;8.20;7.20;;;22.50;1.00;;;;;;5110163;28;20987;-57
2022/05/14 10:14:18;;;;;;;7.50;6.70;;;22.50;1.00;;;;;;5102292;28;20548;-56
2022/05/14 10:17:13;;;;;;;9.40;8.50;;;22.50;1.00;;;;;;5104890;28;20844;-55
2022/05/14 10:19:45;;;;;;;8.00;7.30;;;22.50;1.00;;;;;;5107714;28;20438;-56
2022/05/14 10:22:25;;;;;;;9.40;8.03;;;22.20;1.00;;;;;;5110290;28;20943;-57
2022/05/14 10:28:13;;;;;;;6.60;5.50;;;22.30;1.00;;;;;;5108031;28;20462;-56
2022/05/14 10:30:54;;;;;;;9.00;7.40;;;22.50;1.00;;;;;;5093744;28;20933;-56
2022/05/14 10:33:24;;;;;;;11.10;7.40;;;22.40;1.00;;;;;;5102482;28;20440;-57
2022/05/14 10:36:14;;;;;;;7.97;6.73;;;22.60;1.00;;;;;;5107260;28;20505;-56
2022/05/14 10:38:54;;;;;;;6.40;5.70;;;22.50;1.00;;;;;;5105452;28;20497;-58
2022/05/14 10:41:38;;;;;;;9.57;6.30;;;22.60;1.00;;;;;;5104942;28;20448;-55
2022/05/14 10:44:10;;;;;;;6.63;6.00;;;22.80;1.00;;;;;;5096409;28;20862;-57
2022/05/14 10:46:38;;;;;;;8.10;5.53;;;22.90;1.00;;;;;;5108837;28;21207;-57
2022/05/14 10:49:11;;;;;;;14.40;6.30;;;22.90;1.00;;;;;;5098543;28;20471;-57
2022/05/14 10:51:44;;;;;;;7.93;6.30;;;23.20;1.00;;;;;;5103927;28;20464;-56
2022/05/14 10:54:18;;;;;;;9.87;6.30;;;23.60;1.00;;;;;;5109284;28;20535;-58
2022/05/14 10:57:00;;;;;;;8.10;5.33;;;22.90;1.00;;;;;;5107693;28;20479;-57
2022/05/14 10:59:39;;;;;;;7.43;5.67;;;22.90;1.00;;;;;;5095922;28;21014;-57
2022/05/14 11:02:13;;;;;;;7.40;4.53;;;23.00;1.00;;;;;;5106900;28;20431;-56
2022/05/14 11:04:38;;;;;;;6.23;5.10;;;23.00;1.00;;;;;;5105647;28;20493;-57
2022/05/14 11:07:10;;;;;;;12.10;5.37;;;23.20;1.00;;;;;;5093596;28;20447;-57
2022/05/14 11:09:38;;;;;;;5.73;4.70;;;23.30;1.00;;;;;;5110148;28;20177;-58
2022/05/14 11:12:27;;;;;;;5.90;5.00;;;23.10;1.00;;;;;;5103136;28;20466;-56
2022/05/14 11:14:55;;;;;;;6.67;5.50;;;22.70;1.00;;;;;;5106905;28;20508;-56
2022/05/14 11:17:33;;;;;;;7.70;5.20;;;22.00;1.00;;;;;;5103510;28;20443;-57
2022/05/14 11:20:05;;;;;;;23.33;20.37;;;21.90;1.00;;;;;;5104489;28;20447;-57
2022/05/14 11:22:39;;;;;;;5.33;4.83;;;21.80;1.00;;;;;;5103328;28;20552;-56
2022/05/14 11:25:16;;;;;;;4.80;4.33;;;21.80;1.00;;;;;;5101208;28;20452;-55
2022/05/14 11:27:55;;;;;;;8.27;4.40;;;21.70;1.00;;;;;;5109575;28;20523;-56
2022/05/14 11:30:44;;;;;;;6.20;4.20;;;21.90;1.00;;;;;;5091773;28;20470;-55
2022/05/14 11:33:28;;;;;;;5.40;3.90;;;21.90;1.00;;;;;;5100276;28;20534;-56
2022/05/14 11:35:57;;;;;;;7.87;3.80;;;22.00;1.00;;;;;;5103073;28;20476;-57
2022/05/14 11:38:29;;;;;;;8.50;4.43;;;22.40;1.00;;;;;;5109112;28;20510;-57
2022/05/14 11:40:58;;;;;;;6.10;4.10;;;22.40;1.00;;;;;;5108650;28;20430;-58
2022/05/14 11:43:31;;;;;;;5.30;3.93;;;22.50;1.00;;;;;;5104128;28;20502;-57
2022/05/14 11:46:27;;;;;;;6.87;4.10;;;22.60;1.00;;;;;;5093507;28;20551;-56
2022/05/14 11:49:08;;;;;;;7.80;3.90;;;23.00;1.00;;;;;;5097462;28;20481;-54
2022/05/14 11:51:38;;;;;;;4.27;3.20;;;23.30;1.00;;;;;;5098961;28;20964;-57
2022/05/14 11:54:09;;;;;;;6.60;3.03;;;23.20;1.00;;;;;;5109034;28;21041;-57
2022/05/14 11:56:48;;;;;;;11.13;4.63;;;23.30;1.00;;;;;;5109690;28;20444;-57
2022/05/14 11:59:38;;;;;;;6.00;3.00;;;23.30;1.00;;;;;;5093826;28;20659;-57
2022/05/14 12:02:11;;;;;;;8.53;3.40;;;23.40;1.00;;;;;;5101737;28;20482;-58
2022/05/14 12:04:43;;;;;;;6.67;3.80;;;23.30;1.00;;;;;;5105043;28;20452;-56
2022/05/14 12:07:27;;;;;;;6.53;3.20;;;23.20;1.00;;;;;;5094044;28;20430;-55
2022/05/14 12:10:14;;;;;;;4.83;3.17;;;23.30;1.00;;;;;;5105561;28;20798;-57
2022/05/14 12:12:57;;;;;;;7.50;3.30;;;23.30;1.00;;;;;;5104234;28;20627;-56
2022/05/14 12:15:24;;;;;;;5.30;3.33;;;23.40;1.00;;;;;;5098333;28;20527;-57
2022/05/14 12:17:54;;;;;;;9.93;4.07;;;23.20;1.00;;;;;;5107326;28;20446;-57
2022/05/14 12:20:25;;;;;;;8.07;3.90;;;23.40;1.00;;;;;;5105769;28;20492;-56
2022/05/14 12:23:00;;;;;;;4.23;3.83;;;23.40;1.00;;;;;;5105683;28;20535;-57
2022/05/14 12:25:37;;;;;;;5.40;3.90;;;23.20;1.00;;;;;;5108658;28;20928;-58
2022/05/14 12:28:02;;;;;;;5.13;3.40;;;23.20;1.00;;;;;;5103899;28;20444;-57
2022/05/14 12:33:19;;;;;;;7.13;3.77;;;23.00;1.00;;;;;;5095607;28;20747;-56
2022/05/14 12:35:56;;;;;;;5.23;3.50;;;22.90;1.00;;;;;;5103193;28;20484;-57
2022/05/14 12:38:33;;;;;;;5.10;3.27;;;22.90;1.00;;;;;;5084704;28;20474;-58
2022/05/14 12:40:58;;;;;;;5.27;3.30;;;23.10;1.00;;;;;;5106336;28;20439;-57
2022/05/14 12:43:25;;;;;;;5.17;3.27;;;23.20;1.00;;;;;;5100289;28;20438;-56
2022/05/14 12:46:07;;;;;;;5.60;3.20;;;23.30;1.00;;;;;;5105969;28;20234;-56
2022/05/14 12:48:46;;;;;;;7.17;3.10;;;23.30;1.00;;;;;;5094802;28;20502;-58
2022/05/14 12:51:21;;;;;;;3.53;2.90;;;23.30;1.00;;;;;;5090523;28;20483;-56
2022/05/14 12:53:47;;;;;;;5.60;3.10;;;23.30;1.00;;;;;;5103505;28;20963;-57
2022/05/14 12:56:15;;;;;;;4.03;3.00;;;23.20;1.00;;;;;;5107167;28;20497;-58
2022/05/14 12:58:42;;;;;;;4.00;3.60;;;23.10;1.00;;;;;;5098385;28;20439;-57
2022/05/14 13:01:10;;;;;;;3.80;2.90;;;22.80;1.00;;;;;;5112258;28;20478;-59
2022/05/14 13:03:41;;;;;;;5.47;3.30;;;22.70;1.00;;;;;;5109711;28;20933;-56
2022/05/14 13:06:13;;;;;;;6.87;3.73;;;22.70;1.00;;;;;;5097153;28;20435;-57
2022/05/14 13:08:46;;;;;;;4.90;3.73;;;23.00;1.00;;;;;;5101128;28;20547;-58
2022/05/14 13:11:15;;;;;;;8.80;3.77;;;22.80;1.00;;;;;;5111031;28;20467;-56
2022/05/14 13:13:45;;;;;;;10.57;3.70;;;22.70;1.00;;;;;;5112110;28;20448;-58
2022/05/14 13:16:22;;;;;;;10.50;4.00;;;22.50;1.00;;;;;;5110231;28;20436;-56
2022/05/14 13:18:57;;;;;;;5.43;3.57;;;22.80;1.00;;;;;;5111307;28;20474;-57
2022/05/14 13:21:23;;;;;;;6.20;3.40;;;22.80;1.00;;;;;;5109869;28;20466;-57
2022/05/14 13:24:04;;;;;;;3.90;3.27;;;22.80;1.00;;;;;;5106145;28;20452;-57
2022/05/14 13:26:49;;;;;;;5.00;3.47;;;22.70;1.00;;;;;;5099352;28;21032;-55
2022/05/14 13:29:15;;;;;;;5.83;3.10;;;22.60;1.00;;;;;;5095157;28;20843;-56